createdAt,value
2023-05-16T00:01:38.222Z,0.80
2023-05-16T00:04:06.780Z,0.70
2023-05-16T00:06:35.676Z,0.80
2023-05-16T00:09:03.877Z,0.60
2023-05-16T00:11:33.240Z,0.70
2023-05-16T00:14:01.635Z,0.53
2023-05-16T00:16:30.765Z,0.80
2023-05-16T00:19:00.024Z,0.70
2023-05-16T00:21:28.082Z,0.60
2023-05-16T00:23:56.045Z,0.77
2023-05-16T00:26:24.044Z,0.60
2023-05-16T00:28:53.547Z,0.60
2023-05-16T00:31:21.637Z,0.60
2023-05-16T00:33:49.763Z,0.70
2023-05-16T00:36:17.746Z,0.70
2023-05-16T00:38:45.788Z,0.90
2023-05-16T00:41:13.646Z,0.60
2023-05-16T00:43:41.519Z,0.50
2023-05-16T00:46:10.844Z,0.70
2023-05-16T00:48:38.708Z,0.53
2023-05-16T00:51:09.504Z,0.60
2023-05-16T00:53:37.779Z,0.80
2023-05-16T00:56:07.438Z,0.67
2023-05-16T00:58:35.273Z,0.50
2023-05-16T01:01:05.163Z,1.07
2023-05-16T01:03:35.374Z,0.60
2023-05-16T01:06:03.280Z,0.60
2023-05-16T01:08:31.097Z,0.80
2023-05-16T01:11:03.465Z,0.70
2023-05-16T01:13:36.504Z,0.70
2023-05-16T01:16:07.323Z,0.90
2023-05-16T01:18:42.791Z,0.70
2023-05-16T01:21:14.273Z,0.80
2023-05-16T01:23:51.131Z,0.80
2023-05-16T01:26:22.537Z,0.70
2023-05-16T01:28:51.755Z,0.83
2023-05-16T01:31:20.223Z,0.70
2023-05-16T01:33:48.776Z,0.70
2023-05-16T01:36:23.510Z,0.80
2023-05-16T01:39:03.026Z,0.77
2023-05-16T01:41:38.465Z,0.70
2023-05-16T01:44:09.594Z,0.80
2023-05-16T01:46:40.498Z,0.67
2023-05-16T01:49:17.218Z,0.80
2023-05-16T01:51:47.096Z,0.70
2023-05-16T01:54:16.835Z,0.80
2023-05-16T01:56:51.907Z,0.93
2023-05-16T01:59:22.005Z,1.07
2023-05-16T02:01:49.816Z,0.87
2023-05-16T02:04:17.718Z,0.80
2023-05-16T02:06:46.208Z,0.80
2023-05-16T02:09:14.030Z,0.97
2023-05-16T02:11:41.869Z,0.90
2023-05-16T02:14:11.073Z,0.97
2023-05-16T02:16:39.213Z,0.90
2023-05-16T02:19:07.155Z,0.90
2023-05-16T02:21:34.998Z,1.00
2023-05-16T02:24:02.844Z,1.07
2023-05-16T02:26:30.675Z,0.90
2023-05-16T02:28:58.475Z,0.80
2023-05-16T02:31:32.045Z,1.00
2023-05-16T02:34:01.567Z,0.83
2023-05-16T02:36:29.752Z,1.00
2023-05-16T02:38:57.578Z,1.03
2023-05-16T02:41:25.458Z,0.80
2023-05-16T02:43:53.359Z,0.90
2023-05-16T02:46:25.813Z,1.00
2023-05-16T02:48:55.657Z,0.97
2023-05-16T02:51:24.926Z,1.07
2023-05-16T02:53:53.552Z,1.00
2023-05-16T02:56:21.851Z,1.00
2023-05-16T02:58:50.649Z,0.90
2023-05-16T03:01:18.625Z,1.00
2023-05-16T03:03:46.737Z,0.90
2023-05-16T03:06:16.306Z,1.00
2023-05-16T03:08:44.254Z,1.00
2023-05-16T03:11:12.032Z,1.10
2023-05-16T03:13:39.860Z,0.70
2023-05-16T03:16:07.983Z,1.00
2023-05-16T03:18:35.954Z,1.10
2023-05-16T03:21:03.860Z,1.00
2023-05-16T03:23:33.026Z,0.83
2023-05-16T03:26:01.018Z,0.80
2023-05-16T03:28:28.858Z,1.03
2023-05-16T03:30:56.737Z,1.03
2023-05-16T03:33:24.810Z,1.00
2023-05-16T03:35:53.253Z,1.13
2023-05-16T03:38:21.598Z,1.13
2023-05-16T03:40:51.356Z,1.30
2023-05-16T03:43:19.167Z,1.33
2023-05-16T03:45:47.022Z,1.43
2023-05-16T03:48:15.122Z,1.43
2023-05-16T03:50:43.025Z,1.40
2023-05-16T03:53:10.899Z,1.40
2023-05-16T03:55:38.733Z,1.40
2023-05-16T03:58:08.002Z,1.40
2023-05-16T04:00:36.825Z,1.00
2023-05-16T04:03:05.183Z,1.30
2023-05-16T04:05:33.343Z,1.23
2023-05-16T04:08:01.235Z,1.10
2023-05-16T04:10:29.326Z,1.17
2023-05-16T04:12:57.144Z,1.40
2023-05-16T04:15:26.577Z,1.30
2023-05-16T04:17:54.581Z,1.50
2023-05-16T04:20:22.477Z,1.10
2023-05-16T04:22:50.603Z,1.00
2023-05-16T04:25:18.519Z,1.10
2023-05-16T04:27:46.557Z,1.10
2023-05-16T04:30:15.333Z,1.00
2023-05-16T04:32:44.646Z,1.10
2023-05-16T04:35:12.517Z,1.07
2023-05-16T04:37:40.619Z,1.00
2023-05-16T04:40:10.026Z,1.10
2023-05-16T04:42:37.881Z,1.10
2023-05-16T04:45:10.944Z,1.20
2023-05-16T04:47:39.241Z,1.20
2023-05-16T04:50:10.122Z,1.30
2023-05-16T04:52:38.205Z,1.20
2023-05-16T04:55:07.038Z,1.00
2023-05-16T04:57:35.203Z,1.03
2023-05-16T05:00:05.825Z,1.30
2023-05-16T05:02:33.710Z,1.10
2023-05-16T05:05:01.658Z,1.10
2023-05-16T05:07:33.801Z,1.10
2023-05-16T05:10:01.650Z,0.90
2023-05-16T05:12:29.553Z,1.20
2023-05-16T05:14:57.327Z,1.03
2023-05-16T05:17:25.512Z,1.00
2023-05-16T05:19:53.442Z,1.07
2023-05-16T05:22:21.547Z,1.13
2023-05-16T05:24:50.736Z,1.10
2023-05-16T05:27:18.526Z,1.10
2023-05-16T05:29:46.427Z,1.17
2023-05-16T05:32:14.284Z,1.10
2023-05-16T05:34:42.131Z,1.33
2023-05-16T05:37:09.930Z,1.07
2023-05-16T05:39:37.725Z,1.17
2023-05-16T05:42:07.611Z,1.40
2023-05-16T05:44:35.507Z,1.30
2023-05-16T05:47:03.412Z,1.30
2023-05-16T05:49:31.982Z,1.00
2023-05-16T05:51:59.959Z,1.27
2023-05-16T05:54:28.090Z,1.30
2023-05-16T05:56:56.068Z,1.20
2023-05-16T05:59:25.318Z,1.20
2023-05-16T06:01:53.293Z,1.17
2023-05-16T06:04:21.317Z,1.13
2023-05-16T06:06:49.527Z,1.10
2023-05-16T06:09:17.380Z,1.30
2023-05-16T06:11:45.971Z,1.30
2023-05-16T06:14:15.185Z,1.60
2023-05-16T06:16:44.871Z,1.27
2023-05-16T06:19:16.179Z,1.17
2023-05-16T06:21:44.238Z,1.37
2023-05-16T06:24:12.607Z,1.30
2023-05-16T06:26:40.546Z,1.30
2023-05-16T06:29:08.372Z,1.03
2023-05-16T06:31:36.420Z,1.33
2023-05-16T06:34:05.686Z,1.10
2023-05-16T06:36:33.516Z,1.20
2023-05-16T06:39:01.656Z,1.13
2023-05-16T06:41:29.513Z,1.20
2023-05-16T06:43:58.150Z,1.30
2023-05-16T06:46:26.343Z,1.40
2023-05-16T06:48:54.313Z,1.30
2023-05-16T06:51:23.604Z,1.20
2023-05-16T06:53:51.474Z,1.20
2023-05-16T06:56:19.366Z,1.27
2023-05-16T06:58:47.397Z,1.20
2023-05-16T07:01:15.272Z,1.23
2023-05-16T07:03:43.433Z,1.30
2023-05-16T07:06:11.565Z,1.27
2023-05-16T07:08:41.013Z,1.10
2023-05-16T07:11:08.862Z,1.20
2023-05-16T07:13:36.671Z,1.40
2023-05-16T07:16:05.235Z,1.43
2023-05-16T07:18:33.190Z,1.40
2023-05-16T07:21:01.232Z,1.20
2023-05-16T07:23:29.071Z,1.33
2023-05-16T07:25:58.437Z,1.30
2023-05-16T07:28:26.324Z,1.40
2023-05-16T07:30:54.767Z,1.63
2023-05-16T07:33:23.055Z,1.50
2023-05-16T07:35:51.506Z,1.20
2023-05-16T07:38:22.584Z,1.43
2023-05-16T07:40:50.617Z,1.40
2023-05-16T07:43:19.886Z,1.20
2023-05-16T07:45:47.764Z,1.37
2023-05-16T07:48:16.138Z,1.20
2023-05-16T07:50:44.352Z,1.50
2023-05-16T07:53:12.208Z,1.70
2023-05-16T07:55:40.141Z,1.60
2023-05-16T07:58:08.238Z,1.40
2023-05-16T08:00:37.813Z,1.40
2023-05-16T08:03:06.730Z,1.60
2023-05-16T08:05:34.815Z,1.27
2023-05-16T08:08:02.737Z,1.40
2023-05-16T08:10:30.588Z,1.37
2023-05-16T08:13:01.133Z,1.37
2023-05-16T08:15:29.723Z,1.20
2023-05-16T08:18:00.195Z,1.17
2023-05-16T08:20:28.378Z,1.17
2023-05-16T08:22:56.233Z,1.10
2023-05-16T08:25:24.162Z,1.10
2023-05-16T08:27:52.059Z,1.10
2023-05-16T08:30:19.985Z,1.03
2023-05-16T08:32:47.941Z,1.10
2023-05-16T08:35:17.334Z,1.23
2023-05-16T08:37:45.174Z,1.20
2023-05-16T08:40:15.434Z,1.07
2023-05-16T08:42:45.224Z,1.30
2023-05-16T08:45:13.358Z,1.20
2023-05-16T08:47:42.482Z,1.10
2023-05-16T08:50:11.318Z,1.00
2023-05-16T08:52:42.318Z,1.10
2023-05-16T08:55:12.066Z,1.20
2023-05-16T08:57:40.497Z,0.90
2023-05-16T09:00:12.243Z,0.90
2023-05-16T09:02:41.291Z,1.00
2023-05-16T09:05:10.903Z,1.00
2023-05-16T09:07:40.648Z,1.00
2023-05-16T09:10:09.524Z,1.00
2023-05-16T09:12:37.947Z,0.70
2023-05-16T09:15:07.809Z,0.80
2023-05-16T09:17:39.793Z,0.80
2023-05-16T09:20:14.492Z,0.60
2023-05-16T09:22:51.975Z,0.70
2023-05-16T09:25:29.688Z,0.80
2023-05-16T09:28:01.901Z,0.80
2023-05-16T09:30:32.112Z,0.70
2023-05-16T09:33:00.282Z,0.80
2023-05-16T09:35:43.158Z,0.70
2023-05-16T09:38:17.126Z,0.73
2023-05-16T09:40:46.153Z,0.57
2023-05-16T09:43:17.331Z,0.60
2023-05-16T09:45:47.659Z,0.67
2023-05-16T09:48:16.821Z,0.50
2023-05-16T09:50:51.371Z,0.73
2023-05-16T09:53:27.232Z,0.80
2023-05-16T09:56:02.088Z,0.80
2023-05-16T09:58:31.156Z,0.70
2023-05-16T10:00:59.410Z,0.70
2023-05-16T10:03:27.676Z,0.80
2023-05-16T10:05:56.100Z,0.90
2023-05-16T10:08:26.081Z,0.80
2023-05-16T10:10:55.094Z,0.80
2023-05-16T10:13:24.331Z,0.80
2023-05-16T10:15:52.482Z,0.80
2023-05-16T10:18:22.281Z,0.60
2023-05-16T10:20:53.464Z,0.60
2023-05-16T10:23:22.619Z,0.60
2023-05-16T10:25:52.188Z,0.50
2023-05-16T10:28:20.163Z,0.80
2023-05-16T10:30:48.324Z,0.60
2023-05-16T10:33:17.587Z,0.50
2023-05-16T10:35:46.618Z,0.60
2023-05-16T10:38:16.357Z,0.50
2023-05-16T10:40:44.433Z,0.40
2023-05-16T10:43:25.782Z,0.60
2023-05-16T10:45:57.773Z,0.50
2023-05-16T10:48:32.852Z,0.50
2023-05-16T10:51:00.854Z,1.00
2023-05-16T10:53:33.403Z,0.60
2023-05-16T10:56:13.368Z,0.60
2023-05-16T10:58:47.742Z,0.50
2023-05-16T11:01:23.296Z,0.43
2023-05-16T11:04:09.034Z,0.40
2023-05-16T11:06:45.118Z,0.40
2023-05-16T11:09:23.081Z,0.50
2023-05-16T11:12:03.368Z,0.50
2023-05-16T11:14:39.260Z,0.60
2023-05-16T11:17:12.698Z,0.50
2023-05-16T11:19:43.013Z,0.40
2023-05-16T11:22:23.244Z,0.50
2023-05-16T11:25:00.327Z,0.40
2023-05-16T11:27:30.926Z,0.60
2023-05-16T11:30:04.539Z,0.43
2023-05-16T11:32:33.295Z,0.40
2023-05-16T11:35:01.363Z,0.40
2023-05-16T11:37:29.724Z,0.50
2023-05-16T11:40:00.696Z,0.40
2023-05-16T11:42:31.482Z,0.60
2023-05-16T11:45:07.603Z,0.80
2023-05-16T11:47:37.260Z,0.50
2023-05-16T11:50:05.796Z,0.53
2023-05-16T11:52:34.216Z,0.60
2023-05-16T11:55:02.409Z,0.50
2023-05-16T11:57:30.374Z,0.40
2023-05-16T11:59:58.224Z,0.50
2023-05-16T12:02:30.262Z,0.40
2023-05-16T12:04:58.148Z,0.40
2023-05-16T12:07:29.530Z,0.50
2023-05-16T12:09:57.380Z,0.40
2023-05-16T12:12:25.188Z,0.40
2023-05-16T12:14:54.434Z,0.40
2023-05-16T12:17:22.965Z,0.50
2023-05-16T12:19:52.414Z,0.40
2023-05-16T12:22:21.217Z,0.50
2023-05-16T12:24:49.107Z,0.60
2023-05-16T12:27:23.066Z,0.63
2023-05-16T12:29:51.672Z,0.70
2023-05-16T12:32:20.008Z,0.70
2023-05-16T12:34:52.241Z,0.90
2023-05-16T12:37:20.594Z,0.90
2023-05-16T12:39:49.070Z,0.83
2023-05-16T12:42:17.002Z,0.53
2023-05-16T12:44:46.723Z,0.70
2023-05-16T12:47:14.826Z,0.63
2023-05-16T12:49:47.045Z,0.60
2023-05-16T12:52:21.309Z,0.70
2023-05-16T12:54:49.659Z,0.70
2023-05-16T12:57:19.982Z,0.57
2023-05-16T12:59:47.869Z,0.50
2023-05-16T13:02:16.825Z,0.50
2023-05-16T13:04:44.660Z,0.60
2023-05-16T13:07:13.137Z,0.70
2023-05-16T13:09:42.478Z,0.60
2023-05-16T13:12:11.086Z,0.57
2023-05-16T13:14:40.067Z,0.77
2023-05-16T13:17:08.603Z,0.77
2023-05-16T13:19:36.596Z,0.50
2023-05-16T13:22:05.034Z,0.70
2023-05-16T13:24:34.332Z,0.80
2023-05-16T13:27:03.751Z,0.70
2023-05-16T13:29:32.528Z,0.70
2023-05-16T13:32:00.404Z,0.60
2023-05-16T13:34:28.284Z,0.70
2023-05-16T13:36:56.268Z,0.60
2023-05-16T13:39:24.150Z,0.60
2023-05-16T13:41:54.924Z,0.77
2023-05-16T13:44:24.136Z,0.70
2023-05-16T13:46:52.031Z,0.70
2023-05-16T13:49:19.883Z,0.70
2023-05-16T13:51:48.474Z,0.87
2023-05-16T13:54:17.253Z,0.80
2023-05-16T13:56:45.205Z,0.80
2023-05-16T13:59:18.298Z,0.90
2023-05-16T14:01:53.247Z,1.00
2023-05-16T14:04:21.239Z,0.80
2023-05-16T14:06:49.213Z,0.60
2023-05-16T14:09:17.188Z,0.67
2023-05-16T14:11:45.062Z,0.60
2023-05-16T14:14:12.893Z,0.60
2023-05-16T14:16:45.267Z,0.70
2023-05-16T14:19:17.336Z,0.50
2023-05-16T14:21:46.961Z,0.50
2023-05-16T14:24:14.883Z,0.60
2023-05-16T14:26:42.760Z,0.60
2023-05-16T14:29:10.860Z,0.50
2023-05-16T14:31:38.809Z,0.50
2023-05-16T14:34:08.117Z,0.50
2023-05-16T14:36:37.758Z,0.50
2023-05-16T14:39:05.696Z,0.50
2023-05-16T14:41:33.550Z,0.40
2023-05-16T14:44:01.399Z,0.43
2023-05-16T14:46:29.271Z,0.60
2023-05-16T14:48:59.365Z,0.50
2023-05-16T14:51:27.396Z,0.40
2023-05-16T14:53:56.964Z,0.50
2023-05-16T14:56:28.131Z,0.50
2023-05-16T14:58:56.299Z,0.50
2023-05-16T15:01:24.165Z,0.50
2023-05-16T15:03:56.073Z,0.50
2023-05-16T15:06:24.595Z,0.50
2023-05-16T15:08:52.627Z,0.60
2023-05-16T15:11:21.875Z,0.60
2023-05-16T15:13:49.891Z,0.60
2023-05-16T15:16:19.490Z,0.60
2023-05-16T15:18:47.562Z,0.50
2023-05-16T15:21:16.743Z,0.50
2023-05-16T15:23:46.661Z,0.60
2023-05-16T15:26:14.541Z,0.50
2023-05-16T15:28:43.850Z,0.50
2023-05-16T15:31:11.712Z,0.60
2023-05-16T15:33:39.521Z,0.70
2023-05-16T15:36:08.209Z,0.70
2023-05-16T15:38:36.560Z,0.63
2023-05-16T15:41:18.633Z,0.60
2023-05-16T15:43:51.576Z,0.70
2023-05-16T15:46:19.538Z,0.70
2023-05-16T15:48:47.406Z,0.60
2023-05-16T15:51:16.188Z,0.60
2023-05-16T15:53:44.777Z,0.60
2023-05-16T15:56:12.665Z,0.50
2023-05-16T15:58:40.596Z,0.60
2023-05-16T16:01:09.924Z,0.60
2023-05-16T16:03:37.921Z,0.50
2023-05-16T16:06:06.305Z,0.50
2023-05-16T16:08:34.184Z,0.37
2023-05-16T16:11:02.116Z,0.70
2023-05-16T16:13:31.030Z,0.53
2023-05-16T16:15:59.269Z,0.50
2023-05-16T16:18:28.612Z,0.40
2023-05-16T16:20:56.516Z,0.40
2023-05-16T16:23:24.372Z,0.60
2023-05-16T16:25:52.220Z,0.50
2023-05-16T16:28:22.373Z,0.50
2023-05-16T16:30:51.017Z,0.67
2023-05-16T16:33:19.009Z,0.70
2023-05-16T16:35:48.307Z,0.60
2023-05-16T16:38:16.272Z,0.70
2023-05-16T16:40:44.111Z,0.70
2023-05-16T16:43:12.026Z,0.70
2023-05-16T16:45:39.890Z,0.70
2023-05-16T16:48:09.263Z,0.80
2023-05-16T16:50:37.272Z,0.70
2023-05-16T16:53:06.533Z,0.80
2023-05-16T16:55:34.393Z,0.60
2023-05-16T16:58:03.097Z,0.50
2023-05-16T17:00:31.484Z,0.60
2023-05-16T17:03:03.899Z,0.53
2023-05-16T17:05:32.105Z,0.70
2023-05-16T17:08:00.037Z,0.60
2023-05-16T17:10:30.267Z,0.50
2023-05-16T17:13:03.042Z,0.50
2023-05-16T17:15:30.974Z,0.50
2023-05-16T17:17:58.861Z,0.63
2023-05-16T17:20:26.968Z,0.60
2023-05-16T17:22:54.805Z,0.60
2023-05-16T17:25:22.690Z,0.60
2023-05-16T17:27:52.258Z,0.60
2023-05-16T17:30:20.196Z,0.60
2023-05-16T17:32:48.051Z,0.70
2023-05-16T17:35:15.903Z,0.60
2023-05-16T17:37:44.009Z,0.57
2023-05-16T17:40:17.000Z,0.70
2023-05-16T17:42:45.903Z,0.60
2023-05-16T17:45:16.324Z,0.50
2023-05-16T17:47:44.553Z,0.50
2023-05-16T17:50:12.539Z,0.60
2023-05-16T17:52:40.630Z,0.57
2023-05-16T17:55:10.778Z,0.53
2023-05-16T17:57:38.943Z,0.60
2023-05-16T18:00:08.481Z,0.60
2023-05-16T18:02:38.677Z,0.43
2023-05-16T18:05:07.780Z,0.70
2023-05-16T18:07:36.234Z,0.47
2023-05-16T18:10:04.174Z,0.60
2023-05-16T18:12:32.373Z,0.60
2023-05-16T18:15:00.251Z,0.70
2023-05-16T18:17:28.402Z,0.80
2023-05-16T18:19:58.719Z,0.80
2023-05-16T18:22:27.667Z,0.73
2023-05-16T18:24:55.726Z,0.63
2023-05-16T18:27:23.593Z,0.70
2023-05-16T18:29:51.426Z,0.60
2023-05-16T18:32:19.331Z,0.90
2023-05-16T18:34:47.222Z,0.90
2023-05-16T18:37:16.778Z,1.00
2023-05-16T18:39:44.981Z,0.80
2023-05-16T18:42:12.888Z,0.80
2023-05-16T18:44:40.770Z,0.70
2023-05-16T18:47:08.707Z,0.60
2023-05-16T18:49:39.140Z,0.60
2023-05-16T18:52:08.538Z,0.60
2023-05-16T18:54:38.262Z,0.70
2023-05-16T18:57:06.982Z,0.60
2023-05-16T18:59:35.108Z,0.80
2023-05-16T19:02:02.990Z,0.50
2023-05-16T19:04:31.028Z,0.53
2023-05-16T19:06:59.036Z,0.60
2023-05-16T19:09:27.033Z,0.57
2023-05-16T19:11:56.746Z,0.40
2023-05-16T19:14:26.871Z,0.50
2023-05-16T19:16:54.784Z,0.50
2023-05-16T19:19:22.945Z,0.43
2023-05-16T19:21:51.004Z,0.50
2023-05-16T19:24:18.916Z,0.60
2023-05-16T19:26:47.060Z,0.60
2023-05-16T19:29:16.399Z,0.50
2023-05-16T19:31:44.262Z,0.60
2023-05-16T19:34:12.189Z,0.67
2023-05-16T19:36:40.187Z,0.60
2023-05-16T19:39:08.048Z,0.60
2023-05-16T19:41:36.700Z,0.50
2023-05-16T19:44:05.707Z,0.60
2023-05-16T19:46:34.938Z,0.50
2023-05-16T19:49:03.007Z,0.40
2023-05-16T19:51:41.424Z,0.50
2023-05-16T19:54:10.018Z,0.70
2023-05-16T19:56:37.914Z,0.70
2023-05-16T19:59:05.762Z,0.80
2023-05-16T20:01:35.017Z,0.80
2023-05-16T20:04:04.878Z,0.70
2023-05-16T20:06:33.383Z,0.60
2023-05-16T20:09:01.327Z,0.80
2023-05-16T20:11:29.514Z,0.83
2023-05-16T20:13:59.556Z,0.90
2023-05-16T20:16:27.705Z,1.00
2023-05-16T20:18:56.990Z,0.90
2023-05-16T20:21:46.748Z,0.80
2023-05-16T20:43:35.397Z,0.70
2023-05-16T20:46:03.255Z,0.70
2023-05-16T20:48:31.216Z,0.70
2023-05-16T20:51:01.311Z,0.67
2023-05-16T20:53:29.205Z,0.63
2023-05-16T20:55:57.128Z,0.60
2023-05-16T20:58:25.037Z,0.67
2023-05-16T21:00:54.294Z,0.70
2023-05-16T21:03:22.254Z,0.70
2023-05-16T21:05:50.147Z,0.60
2023-05-16T21:08:18.349Z,0.70
2023-05-16T21:10:46.212Z,0.60
2023-05-16T21:13:14.111Z,0.50
2023-05-16T21:15:41.986Z,0.70
2023-05-16T21:18:11.257Z,0.63
2023-05-16T21:20:39.124Z,0.60
2023-05-16T21:23:06.989Z,0.80
2023-05-16T21:25:36.249Z,0.70
2023-05-16T21:28:04.244Z,0.50
2023-05-16T21:30:32.124Z,0.77
2023-05-16T21:33:00.124Z,0.60
2023-05-16T21:35:29.628Z,0.80
2023-05-16T21:37:57.818Z,0.60
2023-05-16T21:40:26.099Z,0.80
2023-05-16T21:42:54.104Z,0.70
2023-05-16T21:45:22.022Z,0.70
2023-05-16T21:47:49.966Z,0.60
2023-05-16T21:50:18.344Z,0.87
2023-05-16T21:52:47.667Z,0.80
2023-05-16T21:55:15.597Z,0.80
2023-05-16T21:57:43.552Z,0.60
2023-05-16T22:00:12.655Z,0.60
2023-05-16T22:02:40.608Z,0.70
2023-05-16T22:05:09.492Z,0.70
2023-05-16T22:07:38.097Z,0.70
2023-05-16T22:10:08.570Z,0.50
2023-05-16T22:12:36.403Z,0.60
2023-05-16T22:15:04.819Z,0.80
2023-05-16T22:17:32.852Z,0.70
2023-05-16T22:20:02.175Z,0.70
2023-05-16T22:22:30.097Z,0.60
2023-05-16T22:24:58.012Z,0.70
2023-05-16T22:27:27.300Z,0.67
2023-05-16T22:29:55.205Z,0.87
2023-05-16T22:32:23.402Z,0.70
2023-05-16T22:34:52.792Z,0.73
2023-05-16T22:37:20.769Z,0.70
2023-05-16T22:39:48.644Z,0.50
2023-05-16T22:42:16.488Z,0.60
2023-05-16T22:44:46.039Z,0.70
2023-05-16T22:47:13.919Z,0.60
2023-05-16T22:49:41.828Z,0.60
2023-05-16T22:52:09.737Z,0.60
2023-05-16T22:54:37.566Z,0.63
2023-05-16T22:57:05.552Z,0.70
2023-05-16T22:59:33.413Z,0.80
2023-05-16T23:02:02.623Z,0.70
2023-05-16T23:04:30.548Z,0.67
2023-05-16T23:06:58.451Z,0.80
2023-05-16T23:09:26.878Z,0.70
2023-05-16T23:11:54.706Z,0.80
2023-05-16T23:14:22.540Z,0.70
2023-05-16T23:16:50.444Z,0.60
2023-05-16T23:19:19.795Z,0.70
2023-05-16T23:21:48.005Z,0.60
2023-05-16T23:24:15.904Z,0.60
2023-05-16T23:26:43.761Z,0.50
2023-05-16T23:29:11.645Z,0.50
2023-05-16T23:31:39.566Z,0.50
2023-05-16T23:34:07.574Z,0.60
2023-05-16T23:36:36.929Z,0.40
2023-05-16T23:39:05.206Z,0.40
2023-05-16T23:41:35.172Z,0.40
2023-05-16T23:44:03.009Z,0.57
2023-05-16T23:46:30.922Z,0.50
2023-05-16T23:48:58.843Z,0.40
2023-05-16T23:53:56.149Z,0.43
2023-05-16T23:56:23.993Z,0.40
2023-05-16T23:58:51.884Z,0.50
